Time;durP1;ratioP1;P1;durP2;ratioP2;P2;SDS_P1;SDS_P2;PMS_P1;PMS_P2;Temp;Humidity;BMP_temperature;BMP_pressure;BME280_temperature;BME280_humidity;BME280_pressure;Samples;Min_cycle;Max_cycle;Signal;HPM_P1;HPM_P2
2019/10/06 00:00:00;;;;;;;5.7;4.5;;;;;;;;;;;;;
2019/10/06 00:02:25;;;;;;;5;4.5;;;;;;;;;;;;;
2019/10/06 00:04:50;;;;;;;4.9;4.4;;;;;;;;;;;;;
2019/10/06 00:07:15;;;;;;;6.3;4.9;;;;;;;;;;;;;
2019/10/06 00:09:40;;;;;;;5;4.5;;;;;;;;;;;;;
2019/10/06 00:12:05;;;;;;;5.4;4.6;;;;;;;;;;;;;
2019/10/06 00:14:30;;;;;;;5.5;4.7;;;;;;;;;;;;;
2019/10/06 00:16:55;;;;;;;5.3;4.7;;;;;;;;;;;;;
2019/10/06 00:19:21;;;;;;;6.6;4.9;;;;;;;;;;;;;
2019/10/06 00:21:46;;;;;;;5.3;4.8;;;;;;;;;;;;;
2019/10/06 00:24:11;;;;;;;5.7;4.6;;;;;;;;;;;;;
2019/10/06 00:26:36;;;;;;;5.7;4.6;;;;;;;;;;;;;
2019/10/06 00:29:01;;;;;;;5.7;4.8;;;;;;;;;;;;;
2019/10/06 00:31:39;;;;;;;5.3;4.7;;;;;;;;;;;;;
2019/10/06 00:33:51;;;;;;;5.4;4.8;;;;;;;;;;;;;
2019/10/06 00:36:16;;;;;;;5.3;4.8;;;;;;;;;;;;;
2019/10/06 00:38:41;;;;;;;6.3;4.9;;;;;;;;;;;;;
2019/10/06 00:41:07;;;;;;;5.9;4.8;;;;;;;;;;;;;
2019/10/06 00:43:32;;;;;;;5.2;4.7;;;;;;;;;;;;;
2019/10/06 00:45:57;;;;;;;5.6;5;;;;;;;;;;;;;
2019/10/06 00:48:22;;;;;;;5.2;4.7;;;;;;;;;;;;;
2019/10/06 00:52:33;;;;;;;5.6;5;;;;;;;;;;;;;
2019/10/06 00:54:58;;;;;;;6.2;5.4;;;;;;;;;;;;;
2019/10/06 00:57:23;;;;;;;6.2;5.4;;;;;;;;;;;;;
2019/10/06 00:59:49;;;;;;;6;5.3;;;;;;;;;;;;;
2019/10/06 01:02:14;;;;;;;6.6;5.6;;;;;;;;;;;;;
2019/10/06 01:04:39;;;;;;;6;5.4;;;;;;;;;;;;;
2019/10/06 01:07:04;;;;;;;6;5.4;;;;;;;;;;;;;
2019/10/06 01:09:29;;;;;;;6.3;5;;;;;;;;;;;;;
2019/10/06 01:11:54;;;;;;;5.7;5.1;;;;;;;;;;;;;
2019/10/06 01:14:19;;;;;;;6;5.4;;;;;;;;;;;;;
2019/10/06 01:16:44;;;;;;;6.3;5.3;;;;;;;;;;;;;
2019/10/06 01:19:10;;;;;;;7.9;5.5;;;;;;;;;;;;;
2019/10/06 01:21:34;;;;;;;6;5.4;;;;;;;;;;;;;
2019/10/06 01:24:00;;;;;;;5.8;5.2;;;;;;;;;;;;;
2019/10/06 01:26:25;;;;;;;7.1;5.1;;;;;;;;;;;;;
2019/10/06 01:28:50;;;;;;;5.8;4.7;;;;;;;;;;;;;
2019/10/06 01:31:15;;;;;;;5.5;4.9;;;;;;;;;;;;;
2019/10/06 01:33:40;;;;;;;6.1;5.1;;;;;;;;;;;;;
2019/10/06 01:36:05;;;;;;;6.5;5.6;;;;;;;;;;;;;
2019/10/06 01:38:31;;;;;;;6.2;5.6;;;;;;;;;;;;;
2019/10/06 01:40:56;;;;;;;5.8;5.1;;;;;;;;;;;;;
2019/10/06 01:43:21;;;;;;;6;4.9;;;;;;;;;;;;;
2019/10/06 01:45:46;;;;;;;6.5;5.1;;;;;;;;;;;;;
2019/10/06 01:48:11;;;;;;;5.7;5.2;;;;;;;;;;;;;
2019/10/06 01:50:36;;;;;;;6.6;5.1;;;;;;;;;;;;;
2019/10/06 01:53:01;;;;;;;5.3;4.8;;;;;;;;;;;;;
2019/10/06 01:55:26;;;;;;;5.8;4.9;;;;;;;;;;;;;
2019/10/06 01:57:51;;;;;;;5.5;4.9;;;;;;;;;;;;;
2019/10/06 02:00:16;;;;;;;5.8;4.9;;;;;;;;;;;;;
2019/10/06 02:02:41;;;;;;;6.2;5.3;;;;;;;;;;;;;
2019/10/06 02:05:06;;;;;;;5.8;5.2;;;;;;;;;;;;;
2019/10/06 02:07:32;;;;;;;7;5.2;;;;;;;;;;;;;
2019/10/06 02:09:57;;;;;;;5.8;5.2;;;;;;;;;;;;;
2019/10/06 02:12:22;;;;;;;5.7;5.1;;;;;;;;;;;;;
2019/10/06 02:14:47;;;;;;;6.6;5.1;;;;;;;;;;;;;
2019/10/06 02:17:12;;;;;;;5.7;5;;;;;;;;;;;;;
2019/10/06 02:19:37;;;;;;;6.7;5.5;;;;;;;;;;;;;
2019/10/06 02:22:02;;;;;;;5.3;4.8;;;;;;;;;;;;;
2019/10/06 02:24:27;;;;;;;5.6;4.9;;;;;;;;;;;;;
2019/10/06 02:26:52;;;;;;;6.5;5.1;;;;;;;;;;;;;
2019/10/06 02:29:17;;;;;;;5.5;4.8;;;;;;;;;;;;;
2019/10/06 02:31:42;;;;;;;5.7;4.9;;;;;;;;;;;;;
2019/10/06 02:34:08;;;;;;;6.4;5;;;;;;;;;;;;;
2019/10/06 02:36:33;;;;;;;6.1;4.7;;;;;;;;;;;;;
2019/10/06 02:38:58;;;;;;;5;4.5;;;;;;;;;;;;;
2019/10/06 02:41:23;;;;;;;6.8;4.8;;;;;;;;;;;;;
2019/10/06 02:43:48;;;;;;;5.2;4.7;;;;;;;;;;;;;
2019/10/06 02:46:13;;;;;;;5.7;4.7;;;;;;;;;;;;;
2019/10/06 02:48:38;;;;;;;5.3;4.8;;;;;;;;;;;;;
2019/10/06 02:51:03;;;;;;;4.8;4.3;;;;;;;;;;;;;
2019/10/06 02:53:28;;;;;;;5.8;4.7;;;;;;;;;;;;;
2019/10/06 02:55:54;;;;;;;5.7;4.6;;;;;;;;;;;;;
2019/10/06 02:58:19;;;;;;;7;4.5;;;;;;;;;;;;;
2019/10/06 03:00:44;;;;;;;7.7;4.7;;;;;;;;;;;;;
2019/10/06 03:03:09;;;;;;;5.4;4.3;;;;;;;;;;;;;
2019/10/06 03:05:34;;;;;;;4.8;4.2;;;;;;;;;;;;;
2019/10/06 03:07:59;;;;;;;5.3;4.7;;;;;;;;;;;;;
2019/10/06 03:10:24;;;;;;;6.5;4.7;;;;;;;;;;;;;
2019/10/06 03:12:49;;;;;;;5.2;4.3;;;;;;;;;;;;;
2019/10/06 03:15:14;;;;;;;4.8;4.3;;;;;;;;;;;;;
2019/10/06 03:17:39;;;;;;;4.9;4.4;;;;;;;;;;;;;
2019/10/06 03:20:05;;;;;;;5.3;4.2;;;;;;;;;;;;;
2019/10/06 03:22:30;;;;;;;5.2;4.5;;;;;;;;;;;;;
2019/10/06 03:24:55;;;;;;;4.9;4.4;;;;;;;;;;;;;
2019/10/06 03:27:20;;;;;;;5;4.3;;;;;;;;;;;;;
2019/10/06 03:29:45;;;;;;;6.5;4.6;;;;;;;;;;;;;
2019/10/06 03:32:10;;;;;;;6.2;4.6;;;;;;;;;;;;;
2019/10/06 03:34:35;;;;;;;5.9;5;;;;;;;;;;;;;
2019/10/06 03:37:00;;;;;;;6.3;4.9;;;;;;;;;;;;;
2019/10/06 03:39:25;;;;;;;6.2;4.7;;;;;;;;;;;;;
2019/10/06 03:41:50;;;;;;;5.2;4.4;;;;;;;;;;;;;
2019/10/06 03:44:16;;;;;;;4.4;4;;;;;;;;;;;;;
2019/10/06 03:46:41;;;;;;;5.3;4.6;;;;;;;;;;;;;
2019/10/06 03:49:06;;;;;;;4.7;4.3;;;;;;;;;;;;;
2019/10/06 03:51:31;;;;;;;4.9;4.3;;;;;;;;;;;;;
2019/10/06 03:53:56;;;;;;;5.2;4.3;;;;;;;;;;;;;
2019/10/06 03:56:21;;;;;;;4.8;4.3;;;;;;;;;;;;;
2019/10/06 03:58:46;;;;;;;6.1;4.5;;;;;;;;;;;;;
2019/10/06 04:02:27;;;;;;;4.9;4.3;;;;;;;10.28;85.35156;1003.195;;;;
2019/10/06 04:04:52;;;;;;;5.8;4.4;;;;;;;10.24;85.67383;1003.182;;;;
2019/10/06 04:07:17;;;;;;;5.3;4.3;;;;;;;10.27;85.78223;1003.196;;;;
2019/10/06 04:09:43;;;;;;;4.7;4;;;;;;;10.34;85.59082;1003.195;;;;
2019/10/06 04:12:08;;;;;;;5.4;4.5;;;;;;;10.29;85.66211;1003.185;;;;
2019/10/06 04:17:05;;;;;;;4.9;4.4;;;;;;;10.28;85.91016;1003.147;;;;
2019/10/06 04:19:59;;;;;;;6.2;4.2;;;;;;;10.26;86.03223;1003.124;;;;
2019/10/06 04:21:49;;;;;;;4.9;4.4;;;;;;;10.25;86.2041;1003.116;;;;
2019/10/06 04:24:14;;;;;;;5.9;4.7;;;;;;;10.43;85.32422;1003.045;;;;
2019/10/06 04:26:39;;;;;;;6.9;4.5;;;;;;;10.39;85.47559;1003;;;;
2019/10/06 04:29:04;;;;;;;5.1;4.6;;;;;;;10.36;85.55957;1002.924;;;;
2019/10/06 04:31:29;;;;;;;5.4;4.2;;;;;;;10.41;85.52344;1002.88;;;;
2019/10/06 04:33:55;;;;;;;4.5;4.1;;;;;;;10.39;85.56738;1002.886;;;;
2019/10/06 04:36:20;;;;;;;4.7;4.2;;;;;;;10.4;85.53418;1002.88;;;;
2019/10/06 04:38:45;;;;;;;5;4.3;;;;;;;10.47;85.27441;1002.875;;;;
2019/10/06 04:41:10;;;;;;;5.3;4.7;;;;;;;10.52;84.83789;1002.81;;;;
2019/10/06 04:43:35;;;;;;;4.7;4.2;;;;;;;10.47;85.25098;1002.753;;;;
2019/10/06 04:46:00;;;;;;;5.8;4.3;;;;;;;10.5;85.48535;1002.711;;;;
2019/10/06 04:48:25;;;;;;;4.7;4.2;;;;;;;10.59;85.36621;1002.695;;;;
2019/10/06 04:50:50;;;;;;;5;4.5;;;;;;;10.62;85.12109;1002.698;;;;
2019/10/06 04:53:15;;;;;;;7;4.3;;;;;;;10.81;84.29688;1002.711;;;;
2019/10/06 04:55:41;;;;;;;4.3;3.9;;;;;;;10.76;84.26367;1002.722;;;;
2019/10/06 04:58:06;;;;;;;5.5;4.2;;;;;;;10.77;84.15234;1002.749;;;;
2019/10/06 05:00:31;;;;;;;5.9;4.1;;;;;;;10.76;83.91992;1002.706;;;;
2019/10/06 05:02:56;;;;;;;5;4.2;;;;;;;10.82;83.77246;1002.722;;;;
2019/10/06 05:05:21;;;;;;;5.7;4.4;;;;;;;10.73;84.19141;1002.718;;;;
2019/10/06 05:07:46;;;;;;;5.7;4;;;;;;;10.74;84.4668;1002.69;;;;
2019/10/06 05:10:11;;;;;;;5;4.5;;;;;;;10.7;84.24219;1002.628;;;;
2019/10/06 05:12:37;;;;;;;5.6;4.4;;;;;;;10.7;84.43848;1002.654;;;;
2019/10/06 05:15:02;;;;;;;5.2;4.4;;;;;;;10.67;84.79785;1002.614;;;;
2019/10/06 05:17:27;;;;;;;8.2;6.1;;;;;;;10.7;84.81445;1002.613;;;;
2019/10/06 05:19:52;;;;;;;5.1;4.6;;;;;;;10.67;84.91016;1002.624;;;;
2019/10/06 05:22:17;;;;;;;5.2;4.3;;;;;;;10.64;85.05566;1002.697;;;;
2019/10/06 05:24:42;;;;;;;4.6;4.2;;;;;;;10.69;85.04199;1002.719;;;;
2019/10/06 05:27:07;;;;;;;6.7;4.5;;;;;;;10.66;85.02539;1002.728;;;;
2019/10/06 05:29:33;;;;;;;4.8;4.2;;;;;;;10.66;85.24219;1002.717;;;;
2019/10/06 05:31:58;;;;;;;4.9;4.3;;;;;;;10.73;85.03906;1002.749;;;;
2019/10/06 05:34:23;;;;;;;4.8;4.1;;;;;;;10.7;85.2627;1002.712;;;;
2019/10/06 05:36:48;;;;;;;6.1;4.2;;;;;;;10.84;84.69238;1002.686;;;;
2019/10/06 05:39:13;;;;;;;4.5;3.9;;;;;;;10.9;84.28027;1002.674;;;;
2019/10/06 05:41:38;;;;;;;5.7;4.2;;;;;;;10.94;84.34473;1002.651;;;;
2019/10/06 05:44:37;;;;;;;4.7;4;;;;;;;11.16;84.32129;1002.626;;;;
2019/10/06 05:46:39;;;;;;;4.8;4.1;;;;;;;11.12;84.4043;1002.585;;;;
2019/10/06 05:49:08;;;;;;;7.3;5;;;;;;;11.18;84.25586;1002.555;;;;
2019/10/06 05:51:23;;;;;;;6.1;4.2;;;;;;;10.94;84.34473;1002.507;;;;
2019/10/06 05:53:44;;;;;;;5.4;4.1;;;;;;;10.91;84.80957;1002.548;;;;
2019/10/06 05:56:09;;;;;;;5;4.5;;;;;;;10.93;83.95508;1002.541;;;;
2019/10/06 05:58:34;;;;;;;4.9;4.4;;;;;;;10.95;83.93555;1002.525;;;;
2019/10/06 06:00:59;;;;;;;4.9;4.3;;;;;;;10.94;84.25488;1002.558;;;;
2019/10/06 06:03:25;;;;;;;5.2;4.2;;;;;;;10.98;85.00879;1002.513;;;;
2019/10/06 06:05:50;;;;;;;4.9;4.3;;;;;;;11.02;85.42773;1002.523;;;;
2019/10/06 06:08:15;;;;;;;5.4;4.4;;;;;;;11.04;85.70703;1002.501;;;;
2019/10/06 06:10:40;;;;;;;4.9;4.3;;;;;;;11.18;84.82813;1002.488;;;;
2019/10/06 06:13:05;;;;;;;4.6;4.1;;;;;;;11.1;86.38379;1002.462;;;;
2019/10/06 06:15:30;;;;;;;5;4.2;;;;;;;11.19;86.23047;1002.5;;;;
2019/10/06 06:17:55;;;;;;;5.6;4;;;;;;;11.08;86.29883;1002.398;;;;
2019/10/06 06:20:20;;;;;;;5.5;4.3;;;;;;;11.14;85.77246;1002.409;;;;
2019/10/06 06:22:46;;;;;;;5.1;4.1;;;;;;;11.1;85.70801;1002.372;;;;
2019/10/06 06:25:11;;;;;;;4.9;4;;;;;;;11.17;85.53711;1002.46;;;;
2019/10/06 06:27:36;;;;;;;4.5;3.9;;;;;;;;;;;;;
2019/10/06 06:30:01;;;;;;;3.6;3.3;;;;;;;;;;;;;
2019/10/06 06:32:26;;;;;;;4.5;3.9;;;;;;;;;;;;;
2019/10/06 06:34:51;;;;;;;5.1;3.6;;;;;;;;;;;;;
2019/10/06 06:37:16;;;;;;;4;3.2;;;;;;;;;;;;;
2019/10/06 06:39:41;;;;;;;3.9;3.2;;;;;;;;;;;;;
2019/10/06 06:42:07;;;;;;;4.9;3.7;;;;;;;;;;;;;
2019/10/06 06:44:32;;;;;;;5.1;3.1;;;;;;;;;;;;;
2019/10/06 06:46:57;;;;;;;4;3.4;;;;;;;;;;;;;
2019/10/06 06:49:22;;;;;;;4.1;3.7;;;;;;;;;;;;;
2019/10/06 06:51:47;;;;;;;5.1;4.2;;;;;;;;;;;;;
2019/10/06 06:54:12;;;;;;;5.3;3.8;;;;;;;;;;;;;
2019/10/06 06:56:37;;;;;;;4.8;3.8;;;;;;;;;;;;;
2019/10/06 06:59:02;;;;;;;4.6;4;;;;;;;;;;;;;
2019/10/06 07:01:27;;;;;;;5.4;3.9;;;;;;;;;;;;;
2019/10/06 07:03:53;;;;;;;4.2;3.8;;;;;;;;;;;;;
2019/10/06 07:06:18;;;;;;;4.3;3.8;;;;;;;;;;;;;
2019/10/06 07:08:43;;;;;;;5.2;3.9;;;;;;;;;;;;;
2019/10/06 07:11:08;;;;;;;4.7;4.2;;;;;;;;;;;;;
2019/10/06 07:13:33;;;;;;;4.7;3.6;;;;;;;;;;;;;
2019/10/06 07:15:58;;;;;;;4;3.6;;;;;;;;;;;;;
2019/10/06 07:18:23;;;;;;;5.1;3.6;;;;;;;;;;;;;
2019/10/06 07:20:48;;;;;;;6;4.1;;;;;;;;;;;;;
2019/10/06 07:23:13;;;;;;;4.5;3.8;;;;;;;;;;;;;
2019/10/06 07:25:39;;;;;;;4.2;3.8;;;;;;;;;;;;;
2019/10/06 07:28:04;;;;;;;4.3;3.6;;;;;;;;;;;;;
2019/10/06 07:30:29;;;;;;;6.4;4.1;;;;;;;;;;;;;
2019/10/06 07:32:54;;;;;;;4.2;3.6;;;;;;;;;;;;;
2019/10/06 07:35:19;;;;;;;4.4;3.8;;;;;;;;;;;;;
2019/10/06 07:37:44;;;;;;;4.7;3.9;;;;;;;;;;;;;
2019/10/06 07:40:09;;;;;;;4.7;3.7;;;;;;;;;;;;;
2019/10/06 07:42:34;;;;;;;5.3;3.8;;;;;;;;;;;;;
2019/10/06 07:44:59;;;;;;;4.7;3.9;;;;;;;;;;;;;
2019/10/06 07:47:24;;;;;;;5.8;4;;;;;;;;;;;;;
2019/10/06 07:49:50;;;;;;;5.6;4.4;;;;;;;;;;;;;
2019/10/06 07:52:15;;;;;;;4.7;4.3;;;;;;;;;;;;;
2019/10/06 07:54:40;;;;;;;4.8;4.3;;;;;;;;;;;;;
2019/10/06 07:57:05;;;;;;;5.5;4.3;;;;;;;;;;;;;
2019/10/06 07:59:30;;;;;;;5.2;4.5;;;;;;;;;;;;;
2019/10/06 08:01:55;;;;;;;6;4.4;;;;;;;;;;;;;
2019/10/06 08:04:20;;;;;;;5.1;4.5;;;;;;;;;;;;;
2019/10/06 08:06:45;;;;;;;5.6;4.8;;;;;;;;;;;;;
2019/10/06 08:09:10;;;;;;;4.8;4.3;;;;;;;;;;;;;
2019/10/06 08:11:35;;;;;;;7.1;4.6;;;;;;;;;;;;;
2019/10/06 08:14:00;;;;;;;4.9;4.5;;;;;;;;;;;;;
2019/10/06 08:16:25;;;;;;;5;4.5;;;;;;;;;;;;;
2019/10/06 08:18:50;;;;;;;5.2;4.4;;;;;;;;;;;;;
2019/10/06 08:21:15;;;;;;;5.1;4.4;;;;;;;;;;;;;
2019/10/06 08:23:41;;;;;;;6.6;5.1;;;;;;;;;;;;;
2019/10/06 08:26:06;;;;;;;4.9;4.4;;;;;;;;;;;;;
2019/10/06 08:28:31;;;;;;;5;4.5;;;;;;;;;;;;;
2019/10/06 08:30:56;;;;;;;5.6;4.7;;;;;;;;;;;;;
2019/10/06 08:33:21;;;;;;;5.6;5;;;;;;;;;;;;;
2019/10/06 08:35:46;;;;;;;6.8;5.1;;;;;;;;;;;;;
2019/10/06 08:38:11;;;;;;;5.5;4.7;;;;;;;;;;;;;
2019/10/06 08:40:36;;;;;;;6.5;5.5;;;;;;;;;;;;;
2019/10/06 08:43:01;;;;;;;7.5;5.6;;;;;;;;;;;;;
2019/10/06 08:45:27;;;;;;;7.2;6.2;;;;;;;;;;;;;
2019/10/06 08:47:52;;;;;;;7;6.3;;;;;;;;;;;;;
2019/10/06 08:50:17;;;;;;;6.2;5.6;;;;;;;;;;;;;
2019/10/06 08:52:42;;;;;;;7.3;5.8;;;;;;;;;;;;;
2019/10/06 08:55:07;;;;;;;5.9;5.4;;;;;;;;;;;;;
2019/10/06 08:57:32;;;;;;;5.5;4.9;;;;;;;;;;;;;
2019/10/06 08:59:57;;;;;;;6.4;5.7;;;;;;;;;;;;;
2019/10/06 09:02:22;;;;;;;6.2;5.3;;;;;;;;;;;;;
2019/10/06 09:04:48;;;;;;;6;5.4;;;;;;;;;;;;;
2019/10/06 09:07:13;;;;;;;5.7;5.1;;;;;;;;;;;;;
2019/10/06 09:09:38;;;;;;;6.9;5.1;;;;;;;;;;;;;
2019/10/06 09:12:03;;;;;;;5.5;4.9;;;;;;;;;;;;;
2019/10/06 09:14:28;;;;;;;5.9;4.9;;;;;;;;;;;;;
2019/10/06 09:16:53;;;;;;;5.1;4.6;;;;;;;;;;;;;
2019/10/06 09:19:18;;;;;;;5.4;4.6;;;;;;;;;;;;;
2019/10/06 09:21:44;;;;;;;5.3;4.8;;;;;;;;;;;;;
2019/10/06 09:24:09;;;;;;;5.2;4.4;;;;;;;;;;;;;
2019/10/06 09:26:34;;;;;;;4.8;4;;;;;;;;;;;;;
2019/10/06 09:28:59;;;;;;;4.9;4.3;;;;;;;;;;;;;
2019/10/06 09:31:24;;;;;;;4.4;4;;;;;;;;;;;;;
2019/10/06 09:33:49;;;;;;;4.7;4.2;;;;;;;;;;;;;
2019/10/06 09:36:14;;;;;;;4.1;3.7;;;;;;;;;;;;;
2019/10/06 09:38:39;;;;;;;4.9;3.9;;;;;;;;;;;;;
2019/10/06 09:41:04;;;;;;;4.8;4;;;;;;;;;;;;;
2019/10/06 09:43:29;;;;;;;6.2;4.1;;;;;;;;;;;;;
2019/10/06 09:45:55;;;;;;;4.8;4;;;;;;;;;;;;;
2019/10/06 09:48:20;;;;;;;5.2;3.6;;;;;;;;;;;;;
2019/10/06 09:50:45;;;;;;;4;3.5;;;;;;;;;;;;;
2019/10/06 09:53:10;;;;;;;3.7;3.4;;;;;;;;;;;;;
2019/10/06 09:55:35;;;;;;;4.2;3.6;;;;;;;;;;;;;
2019/10/06 09:58:00;;;;;;;3.6;3.3;;;;;;;;;;;;;
2019/10/06 10:00:25;;;;;;;4;3.2;;;;;;;;;;;;;
2019/10/06 10:02:51;;;;;;;3.8;3.4;;;;;;;;;;;;;
2019/10/06 10:05:16;;;;;;;4.1;3.7;;;;;;;;;;;;;
2019/10/06 10:07:41;;;;;;;3.8;3.3;;;;;;;;;;;;;
2019/10/06 10:10:06;;;;;;;3.6;3.3;;;;;;;;;;;;;
2019/10/06 10:12:31;;;;;;;4;3.3;;;;;;;;;;;;;
2019/10/06 10:14:56;;;;;;;4.2;3.2;;;;;;;;;;;;;
2019/10/06 10:17:21;;;;;;;3.9;3.5;;;;;;;;;;;;;
2019/10/06 10:19:46;;;;;;;3.9;3.5;;;;;;;;;;;;;
2019/10/06 10:22:12;;;;;;;4.2;3.8;;;;;;;;;;;;;
2019/10/06 10:24:37;;;;;;;5.3;4;;;;;;;;;;;;;
2019/10/06 10:27:02;;;;;;;6.4;4.7;;;;;;;;;;;;;
2019/10/06 10:29:27;;;;;;;4.4;4;;;;;;;;;;;;;
2019/10/06 10:31:52;;;;;;;4.2;3.8;;;;;;;;;;;;;
2019/10/06 10:34:17;;;;;;;4.6;4.2;;;;;;;;;;;;;
2019/10/06 10:36:42;;;;;;;5.1;4.6;;;;;;;;;;;;;
2019/10/06 10:39:07;;;;;;;5.9;4.8;;;;;;;;;;;;;
2019/10/06 10:41:32;;;;;;;5.2;4.7;;;;;;;;;;;;;
2019/10/06 10:43:58;;;;;;;6;4.4;;;;;;;;;;;;;
2019/10/06 10:46:23;;;;;;;4.4;4;;;;;;;;;;;;;
2019/10/06 10:48:48;;;;;;;4.9;4.4;;;;;;;;;;;;;
2019/10/06 10:51:13;;;;;;;5.4;4.7;;;;;;;;;;;;;
2019/10/06 10:53:38;;;;;;;5.6;4.7;;;;;;;;;;;;;
2019/10/06 10:56:03;;;;;;;5.3;4.8;;;;;;;;;;;;;
2019/10/06 10:58:28;;;;;;;5.5;4.3;;;;;;;;;;;;;
2019/10/06 11:00:53;;;;;;;5.3;4.8;;;;;;;;;;;;;
2019/10/06 11:03:18;;;;;;;5.3;4.8;;;;;;;;;;;;;
2019/10/06 11:05:43;;;;;;;5.5;5;;;;;;;;;;;;;
2019/10/06 11:08:51;;;;;;;8.5;5.7;;;;;;;;;;;;;
2019/10/06 11:10:33;;;;;;;6.4;5.5;;;;;;;;;;;;;
2019/10/06 11:12:58;;;;;;;6.9;5.9;;;;;;;;;;;;;
2019/10/06 11:15:24;;;;;;;6.7;6;;;;;;;;;;;;;
2019/10/06 11:17:49;;;;;;;6.3;5.5;;;;;;;;;;;;;
2019/10/06 11:20:14;;;;;;;7.9;5.6;;;;;;;;;;;;;
2019/10/06 11:22:39;;;;;;;6.3;5.7;;;;;;;;;;;;;
2019/10/06 11:25:04;;;;;;;7;5.9;;;;;;;;;;;;;
2019/10/06 11:27:30;;;;;;;7;6.1;;;;;;;;;;;;;
2019/10/06 11:29:54;;;;;;;7.2;6.2;;;;;;;;;;;;;
2019/10/06 11:32:19;;;;;;;7.4;6;;;;;;;;;;;;;
2019/10/06 11:34:44;;;;;;;7.4;5.9;;;;;;;;;;;;;
2019/10/06 11:37:09;;;;;;;6.5;5.7;;;;;;;;;;;;;
2019/10/06 11:39:35;;;;;;;6.9;5.6;;;;;;;;;;;;;
2019/10/06 11:42:00;;;;;;;5.9;5.3;;;;;;;;;;;;;
2019/10/06 11:44:25;;;;;;;7.6;5.3;;;;;;;;;;;;;
2019/10/06 11:46:50;;;;;;;6.7;6;;;;;;;;;;;;;
2019/10/06 11:49:15;;;;;;;6.1;5.5;;;;;;;;;;;;;
2019/10/06 11:51:40;;;;;;;6.1;5.4;;;;;;;;;;;;;
2019/10/06 11:54:05;;;;;;;6.2;5.1;;;;;;;;;;;;;
2019/10/06 11:56:30;;;;;;;6.5;5.7;;;;;;;;;;;;;
2019/10/06 11:58:56;;;;;;;6.8;5.5;;;;;;;;;;;;;
2019/10/06 12:01:21;;;;;;;5.7;5.1;;;;;;;;;;;;;
2019/10/06 12:03:46;;;;;;;5.4;4.9;;;;;;;;;;;;;
2019/10/06 12:06:11;;;;;;;5.5;4.7;;;;;;;;;;;;;
2019/10/06 12:08:36;;;;;;;6.2;4.9;;;;;;;;;;;;;
2019/10/06 12:11:01;;;;;;;5.8;5.2;;;;;;;;;;;;;
2019/10/06 12:13:26;;;;;;;5.8;5.2;;;;;;;;;;;;;
2019/10/06 12:15:51;;;;;;;5.6;4.7;;;;;;;;;;;;;
2019/10/06 12:18:16;;;;;;;5;4.5;;;;;;;;;;;;;
2019/10/06 12:20:42;;;;;;;5.6;4.5;;;;;;;;;;;;;
2019/10/06 12:23:07;;;;;;;5.6;5.1;;;;;;;;;;;;;
2019/10/06 12:25:32;;;;;;;5.7;4.9;;;;;;;;;;;;;
2019/10/06 12:27:57;;;;;;;6.4;5;;;;;;;;;;;;;
2019/10/06 12:30:22;;;;;;;5.8;5.2;;;;;;;;;;;;;
2019/10/06 12:32:47;;;;;;;6.2;5.6;;;;;;;;;;;;;
2019/10/06 12:35:12;;;;;;;5.8;4.9;;;;;;;;;;;;;
2019/10/06 12:37:37;;;;;;;6.2;5.6;;;;;;;;;;;;;
2019/10/06 12:40:02;;;;;;;6.5;5.8;;;;;;;;;;;;;
2019/10/06 12:42:28;;;;;;;6.5;5.7;;;;;;;;;;;;;
2019/10/06 12:44:53;;;;;;;6.6;5.8;;;;;;;;;;;;;
2019/10/06 12:47:18;;;;;;;6.5;5.8;;;;;;;;;;;;;
2019/10/06 12:49:43;;;;;;;6.8;6.1;;;;;;;;;;;;;
2019/10/06 12:52:08;;;;;;;6.9;6.2;;;;;;;;;;;;;
2019/10/06 12:54:33;;;;;;;7.7;6.8;;;;;;;;;;;;;
2019/10/06 12:56:58;;;;;;;7.3;6.5;;;;;;;;;;;;;
2019/10/06 12:59:23;;;;;;;7;6.2;;;;;;;;;;;;;
2019/10/06 13:01:48;;;;;;;6.9;6.1;;;;;;;;;;;;;
2019/10/06 13:04:13;;;;;;;7.9;6.8;;;;;;;;;;;;;
2019/10/06 13:06:38;;;;;;;7.9;6.7;;;;;;;;;;;;;
2019/10/06 13:09:04;;;;;;;8.4;7.5;;;;;;;;;;;;;
2019/10/06 13:11:28;;;;;;;8.5;7.2;;;;;;;;;;;;;
2019/10/06 13:13:54;;;;;;;7.3;6.5;;;;;;;;;;;;;
2019/10/06 13:16:19;;;;;;;7.9;7.1;;;;;;;;;;;;;
2019/10/06 13:18:44;;;;;;;6.5;5.8;;;;;;;;;;;;;
2019/10/06 13:21:09;;;;;;;7.8;6.5;;;;;;;;;;;;;
2019/10/06 13:23:34;;;;;;;7.3;6.6;;;;;;;;;;;;;
2019/10/06 13:25:59;;;;;;;9;7.1;;;;;;;;;;;;;
2019/10/06 13:28:24;;;;;;;7.8;7;;;;;;;;;;;;;
2019/10/06 13:30:49;;;;;;;9.2;7.9;;;;;;;;;;;;;
2019/10/06 13:33:14;;;;;;;10;8.9;;;;;;;;;;;;;
2019/10/06 13:35:39;;;;;;;9.1;8.1;;;;;;;;;;;;;
2019/10/06 13:38:05;;;;;;;10.6;8;;;;;;;;;;;;;
2019/10/06 13:40:30;;;;;;;10.1;8;;;;;;;;;;;;;
2019/10/06 13:42:55;;;;;;;8.1;7.3;;;;;;;;;;;;;
2019/10/06 13:45:20;;;;;;;9.5;7;;;;;;;;;;;;;
2019/10/06 13:47:45;;;;;;;8.9;7.4;;;;;;;;;;;;;
2019/10/06 13:50:10;;;;;;;8;7.2;;;;;;;;;;;;;
2019/10/06 13:52:35;;;;;;;8.5;6.9;;;;;;;;;;;;;
2019/10/06 13:55:00;;;;;;;7.2;6.4;;;;;;;;;;;;;
2019/10/06 13:57:26;;;;;;;7.1;6.4;;;;;;;;;;;;;
2019/10/06 13:59:51;;;;;;;7.1;6.4;;;;;;;;;;;;;
2019/10/06 14:02:16;;;;;;;7.3;6.5;;;;;;;;;;;;;
2019/10/06 14:04:41;;;;;;;7.6;6.5;;;;;;;;;;;;;
2019/10/06 14:07:06;;;;;;;7.6;6.2;;;;;;;;;;;;;
2019/10/06 14:09:31;;;;;;;7.1;6.4;;;;;;;;;;;;;
2019/10/06 14:11:57;;;;;;;7.9;7.1;;;;;;;;;;;;;
2019/10/06 14:14:22;;;;;;;8.3;7.2;;;;;;;;;;;;;
2019/10/06 14:16:47;;;;;;;9.4;6.9;;;;;;;;;;;;;
2019/10/06 14:19:12;;;;;;;7.7;6.8;;;;;;;;;;;;;
2019/10/06 14:21:37;;;;;;;9.1;7.2;;;;;;;;;;;;;
2019/10/06 14:24:02;;;;;;;7.6;6.5;;;;;;;;;;;;;
2019/10/06 14:26:27;;;;;;;6.9;6.2;;;;;;;;;;;;;
2019/10/06 14:28:52;;;;;;;7.1;6.4;;;;;;;;;;;;;
2019/10/06 14:31:17;;;;;;;7.9;6.8;;;;;;;;;;;;;
2019/10/06 14:33:42;;;;;;;7.3;6.5;;;;;;;;;;;;;
2019/10/06 14:36:07;;;;;;;7.5;6.7;;;;;;;;;;;;;
2019/10/06 14:38:32;;;;;;;8.1;6.2;;;;;;;;;;;;;
2019/10/06 14:40:58;;;;;;;6.9;6.1;;;;;;;;;;;;;
2019/10/06 14:43:23;;;;;;;7.8;6.4;;;;;;;;;;;;;
2019/10/06 14:45:48;;;;;;;8.2;6.1;;;;;;;;;;;;;
2019/10/06 14:48:13;;;;;;;7.4;6.7;;;;;;;;;;;;;
2019/10/06 14:50:38;;;;;;;8.2;6.8;;;;;;;;;;;;;
2019/10/06 14:53:03;;;;;;;7.7;6.6;;;;;;;;;;;;;
2019/10/06 14:55:28;;;;;;;8.6;6.7;;;;;;;;;;;;;
2019/10/06 14:57:53;;;;;;;8.6;6.7;;;;;;;;;;;;;
2019/10/06 15:00:18;;;;;;;7.6;6.7;;;;;;;;;;;;;
2019/10/06 15:02:44;;;;;;;7.3;6.5;;;;;;;;;;;;;
2019/10/06 15:05:09;;;;;;;7.8;6.3;;;;;;;;;;;;;
2019/10/06 15:07:34;;;;;;;7.6;6.8;;;;;;;;;;;;;
2019/10/06 15:09:59;;;;;;;7.9;6.6;;;;;;;;;;;;;
2019/10/06 15:12:24;;;;;;;8.7;6.7;;;;;;;;;;;;;
2019/10/06 15:14:49;;;;;;;8.3;7.1;;;;;;;;;;;;;
2019/10/06 15:17:14;;;;;;;7.4;6.6;;;;;;;;;;;;;
2019/10/06 15:19:39;;;;;;;8.2;6.8;;;;;;;;;;;;;
2019/10/06 15:22:04;;;;;;;10;6.9;;;;;;;;;;;;;
2019/10/06 15:24:30;;;;;;;7.9;6.7;;;;;;;;;;;;;
2019/10/06 15:26:54;;;;;;;7.4;6.6;;;;;;;;;;;;;
2019/10/06 15:29:19;;;;;;;7.2;6.4;;;;;;;;;;;;;
2019/10/06 15:31:45;;;;;;;8.5;6.8;;;;;;;;;;;;;
2019/10/06 15:34:10;;;;;;;10.9;7.3;;;;;;;;;;;;;
2019/10/06 15:36:35;;;;;;;9.9;7.5;;;;;;;;;;;;;
2019/10/06 15:39:00;;;;;;;9.4;7.5;;;;;;;;;;;;;
2019/10/06 15:41:25;;;;;;;8.1;7;;;;;;;;;;;;;
2019/10/06 15:43:50;;;;;;;8.7;6.8;;;;;;;;;;;;;
2019/10/06 15:46:15;;;;;;;7.9;7;;;;;;;;;;;;;
2019/10/06 15:48:40;;;;;;;6.9;5.7;;;;;;;;;;;;;
2019/10/06 15:51:06;;;;;;;8.1;6.3;;;;;;;;;;;;;
2019/10/06 15:53:31;;;;;;;8.8;6.3;;;;;;;;;;;;;
2019/10/06 15:55:56;;;;;;;7.9;6.5;;;;;;;;;;;;;
2019/10/06 15:58:21;;;;;;;7.4;6.2;;;;;;;;;;;;;
2019/10/06 16:00:46;;;;;;;7.1;6;;;;;;;;;;;;;
2019/10/06 16:03:11;;;;;;;6.8;6.1;;;;;;;;;;;;;
2019/10/06 16:05:36;;;;;;;7;5.4;;;;;;;;;;;;;
2019/10/06 16:08:01;;;;;;;7.3;5.8;;;;;;;;;;;;;
2019/10/06 16:10:26;;;;;;;7.1;5.2;;;;;;;;;;;;;
2019/10/06 16:12:51;;;;;;;5.3;4.8;;;;;;;;;;;;;
2019/10/06 16:15:16;;;;;;;5.8;4.9;;;;;;;;;;;;;
2019/10/06 16:17:42;;;;;;;5.9;5.2;;;;;;;;;;;;;
2019/10/06 16:20:07;;;;;;;6.4;5.3;;;;;;;;;;;;;
2019/10/06 16:22:32;;;;;;;5.8;5.1;;;;;;;;;;;;;
2019/10/06 16:24:57;;;;;;;5.7;4.6;;;;;;;;;;;;;
2019/10/06 16:27:22;;;;;;;5;4.5;;;;;;;;;;;;;
2019/10/06 16:29:47;;;;;;;5.8;4.8;;;;;;;;;;;;;
2019/10/06 16:32:12;;;;;;;6.1;4.9;;;;;;;;;;;;;
2019/10/06 16:34:37;;;;;;;5.7;4.9;;;;;;;;;;;;;
2019/10/06 16:37:03;;;;;;;4.8;4.3;;;;;;;;;;;;;
2019/10/06 16:39:28;;;;;;;6;4.4;;;;;;;;;;;;;
2019/10/06 16:41:53;;;;;;;6.7;4.2;;;;;;;;;;;;;
2019/10/06 16:44:18;;;;;;;5.6;4.5;;;;;;;;;;;;;
2019/10/06 16:46:43;;;;;;;6.5;4.3;;;;;;;;;;;;;
2019/10/06 16:49:08;;;;;;;6.4;4.6;;;;;;;;;;;;;
2019/10/06 16:51:33;;;;;;;5.6;4.5;;;;;;;;;;;;;
2019/10/06 16:53:58;;;;;;;7.9;5.2;;;;;;;;;;;;;
2019/10/06 16:56:23;;;;;;;7.3;4.5;;;;;;;;;;;;;
2019/10/06 16:58:49;;;;;;;7.9;5.4;;;;;;;;;;;;;
2019/10/06 17:01:14;;;;;;;6.7;4.3;;;;;;;;;;;;;
2019/10/06 17:03:39;;;;;;;2.6;2.3;;;;;;;;;;;;;
2019/10/06 17:06:04;;;;;;;2.8;2.3;;;;;;;;;;;;;
2019/10/06 17:08:29;;;;;;;3.5;2.4;;;;;;;;;;;;;
2019/10/06 17:10:54;;;;;;;4;2.5;;;;;;;;;;;;;
2019/10/06 17:13:19;;;;;;;2.9;2.5;;;;;;;;;;;;;
2019/10/06 17:15:44;;;;;;;3.5;2.3;;;;;;;;;;;;;
2019/10/06 17:18:09;;;;;;;3.2;2.3;;;;;;;;;;;;;
2019/10/06 17:20:35;;;;;;;4.2;2.3;;;;;;;;;;;;;
2019/10/06 17:23:00;;;;;;;3.3;2.4;;;;;;;;;;;;;
2019/10/06 17:25:25;;;;;;;2.8;2.4;;;;;;;;;;;;;
2019/10/06 17:27:50;;;;;;;3.2;2.4;;;;;;;;;;;;;
2019/10/06 17:30:15;;;;;;;3.5;2.1;;;;;;;;;;;;;
2019/10/06 17:32:40;;;;;;;2.4;2;;;;;;;;;;;;;
2019/10/06 17:35:06;;;;;;;2.7;2.1;;;;;;;;;;;;;
2019/10/06 17:37:31;;;;;;;2.8;2.2;;;;;;;;;;;;;
2019/10/06 17:39:56;;;;;;;4.9;3.5;;;;;;;;;;;;;
2019/10/06 17:42:21;;;;;;;2.7;2.3;;;;;;;;;;;;;
2019/10/06 17:44:46;;;;;;;3.7;3;;;;;;;;;;;;;
2019/10/06 17:47:11;;;;;;;2.6;2.4;;;;;;;;;;;;;
2019/10/06 17:49:36;;;;;;;4.2;2.5;;;;;;;;;;;;;
2019/10/06 17:52:01;;;;;;;3.3;2.6;;;;;;;;;;;;;
2019/10/06 17:54:26;;;;;;;2.8;2.5;;;;;;;;;;;;;
2019/10/06 17:56:51;;;;;;;3;2.5;;;;;;;;;;;;;
2019/10/06 17:59:16;;;;;;;3.8;2.8;;;;;;;;;;;;;
2019/10/06 18:01:42;;;;;;;5.1;2.8;;;;;;;;;;;;;
2019/10/06 18:04:07;;;;;;;6.3;3.6;;;;;;;;;;;;;
2019/10/06 18:06:32;;;;;;;5.5;3.8;;;;;;;;;;;;;
2019/10/06 18:08:57;;;;;;;5.6;4;;;;;;;;;;;;;
2019/10/06 18:11:22;;;;;;;4.4;3.7;;;;;;;;;;;;;
2019/10/06 18:13:47;;;;;;;5.2;4;;;;;;;;;;;;;
2019/10/06 18:16:12;;;;;;;5.6;3.8;;;;;;;;;;;;;
2019/10/06 18:18:37;;;;;;;3.8;3.4;;;;;;;;;;;;;
2019/10/06 18:21:03;;;;;;;3.6;3.2;;;;;;;;;;;;;
2019/10/06 18:23:27;;;;;;;4.3;3.7;;;;;;;;;;;;;
2019/10/06 18:25:53;;;;;;;5.1;3.7;;;;;;;;;;;;;
2019/10/06 18:28:18;;;;;;;6.4;3.6;;;;;;;;;;;;;
2019/10/06 18:30:43;;;;;;;5.2;3.8;;;;;;;;;;;;;
2019/10/06 18:33:08;;;;;;;5.5;4.2;;;;;;;;;;;;;
2019/10/06 18:35:33;;;;;;;5.3;3.9;;;;;;;;;;;;;
2019/10/06 18:37:58;;;;;;;5.8;3.9;;;;;;;;;;;;;
2019/10/06 18:40:23;;;;;;;3.9;3.4;;;;;;;;;;;;;
2019/10/06 18:42:49;;;;;;;4.6;3.3;;;;;;;;;;;;;
2019/10/06 18:45:13;;;;;;;5.1;3.1;;;;;;;;;;;;;
2019/10/06 18:47:39;;;;;;;4.6;3.3;;;;;;;;;;;;;
2019/10/06 18:50:04;;;;;;;5.8;3.3;;;;;;;;;;;;;
2019/10/06 18:52:29;;;;;;;6.2;3.7;;;;;;;;;;;;;
2019/10/06 18:54:54;;;;;;;3.9;2.9;;;;;;;;;;;;;
2019/10/06 18:57:19;;;;;;;4.6;3.2;;;;;;;;;;;;;
2019/10/06 18:59:44;;;;;;;3.9;3;;;;;;;;;;;;;
2019/10/06 19:02:09;;;;;;;4;2.9;;;;;;;;;;;;;
2019/10/06 19:04:34;;;;;;;4.1;2.7;;;;;;;;;;;;;
2019/10/06 19:06:59;;;;;;;3.4;2.7;;;;;;;;;;;;;
2019/10/06 19:09:24;;;;;;;3.9;3;;;;;;;;;;;;;
2019/10/06 19:11:50;;;;;;;3.6;2.4;;;;;;;;;;;;;
2019/10/06 19:14:15;;;;;;;3.2;2.6;;;;;;;;;;;;;
2019/10/06 19:16:40;;;;;;;3.1;2.5;;;;;;;;;;;;;
2019/10/06 19:19:05;;;;;;;3.5;2.7;;;;;;;;;;;;;
2019/10/06 19:21:30;;;;;;;4.2;2.7;;;;;;;;;;;;;
2019/10/06 19:23:55;;;;;;;3.6;2.9;;;;;;;;;;;;;
2019/10/06 19:26:20;;;;;;;5.5;3;;;;;;;;;;;;;
2019/10/06 19:28:45;;;;;;;3;2.5;;;;;;;;;;;;;
2019/10/06 19:31:10;;;;;;;4.1;3;;;;;;;;;;;;;
2019/10/06 19:33:36;;;;;;;4.5;3.1;;;;;;;;;;;;;